Time;durP1;ratioP1;P1;durP2;ratioP2;P2;SDS_P1;SDS_P2;PMS_P1;PMS_P2;Temp;Humidity;BMP_temperature;BMP_pressure;BME280_temperature;BME280_humidity;BME280_pressure;Samples;Min_cycle;Max_cycle;Signal;HPM_P1;HPM_P2
2022/09/06 00:00:03;;;;;;;;;;;26.10;99.90;;;;;;5013934;28;19912;-66
2022/09/06 00:02:32;;;;;;;;;;;26.00;99.90;;;;;;5014184;28;19949;-66
2022/09/06 00:04:58;;;;;;;;;;;26.10;99.90;;;;;;5013965;28;19913;-66
2022/09/06 00:07:24;;;;;;;;;;;26.10;99.90;;;;;;5013962;28;19905;-65
2022/09/06 00:09:50;;;;;;;;;;;26.10;99.90;;;;;;5014147;28;19909;-66
2022/09/06 00:12:16;;;;;;;;;;;26.10;99.90;;;;;;5014141;28;19902;-64
2022/09/06 00:14:42;;;;;;;;;;;26.10;99.90;;;;;;5013784;28;19916;-63
2022/09/06 00:17:09;;;;;;;;;;;26.10;99.90;;;;;;5013820;28;20000;-64
2022/09/06 00:19:35;;;;;;;;;;;26.10;99.90;;;;;;5013936;28;19905;-65
2022/09/06 00:22:01;;;;;;;;;;;26.10;99.90;;;;;;5014689;28;19996;-66
2022/09/06 00:24:27;;;;;;;;;;;26.20;99.90;;;;;;5017852;28;19916;-63
2022/09/06 00:26:53;;;;;;;;;;;26.20;99.90;;;;;;5017273;28;19966;-65
2022/09/06 00:29:20;;;;;;;;;;;26.20;99.90;;;;;;5016027;28;19916;-66
2022/09/06 00:31:46;;;;;;;;;;;26.20;99.90;;;;;;5015791;28;19906;-63
2022/09/06 00:34:12;;;;;;;;;;;26.30;99.90;;;;;;5016232;28;19920;-66
2022/09/06 00:36:38;;;;;;;;;;;26.40;99.90;;;;;;5016785;28;19951;-66
2022/09/06 00:39:04;;;;;;;;;;;26.50;99.90;;;;;;5017022;28;20286;-65
2022/09/06 00:41:30;;;;;;;;;;;26.50;99.90;;;;;;5017165;28;20278;-66
2022/09/06 00:43:56;;;;;;;;;;;26.50;99.90;;;;;;5017618;28;19905;-65
2022/09/06 00:46:24;;;;;;;;;;;26.60;99.90;;;;;;5017643;28;20365;-65
2022/09/06 00:48:52;;;;;;;;;;;26.70;99.90;;;;;;5017467;28;19909;-65
2022/09/06 00:51:19;;;;;;;;;;;26.80;99.90;;;;;;5017095;28;19910;-66
2022/09/06 00:53:45;;;;;;;;;;;26.90;99.90;;;;;;5014557;28;19909;-65
2022/09/06 00:56:11;;;;;;;;;;;27.00;99.90;;;;;;4997715;28;19906;-64
2022/09/06 00:58:38;;;;;;;;;;;27.00;99.90;;;;;;5015256;28;19949;-65
2022/09/06 01:01:05;;;;;;;;;;;27.00;99.90;;;;;;5017216;28;19905;-65
2022/09/06 01:03:32;;;;;;;;;;;27.00;99.90;;;;;;5017112;28;19909;-65
2022/09/06 01:05:58;;;;;;;;;;;27.00;99.90;;;;;;5017228;28;19997;-64
2022/09/06 01:08:34;;;;;;;;;;;27.00;99.90;;;;;;5017173;28;19906;-64
2022/09/06 01:11:02;;;;;;;;;;;27.10;99.90;;;;;;5016886;28;19913;-65
2022/09/06 01:13:28;;;;;;;;;;;27.20;99.90;;;;;;5016829;28;19909;-65
2022/09/06 01:15:58;;;;;;;;;;;27.10;99.90;;;;;;5016823;28;19916;-65
2022/09/06 01:18:44;;;;;;;;;;;27.20;99.90;;;;;;5016980;28;20380;-65
2022/09/06 01:21:19;;;;;;;;;;;27.20;99.90;;;;;;5016643;28;19917;-65
2022/09/06 01:23:54;;;;;;;;;;;27.30;99.90;;;;;;5011601;28;19906;-65
2022/09/06 01:26:36;;;;;;;;;;;27.40;99.90;;;;;;4997143;28;20333;-64
2022/09/06 01:29:06;;;;;;;;;;;27.50;99.90;;;;;;4997253;28;19906;-65
2022/09/06 01:31:45;;;;;;;;;;;27.60;99.90;;;;;;4997440;28;19905;-65
2022/09/06 01:34:18;;;;;;;;;;;27.80;99.90;;;;;;4996105;28;20363;-65
2022/09/06 01:36:52;;;;;;;;;;;27.90;99.90;;;;;;4997295;28;19928;-64
2022/09/06 01:39:32;;;;;;;;;;;27.90;99.90;;;;;;4997013;28;19916;-65
2022/09/06 01:42:02;;;;;;;;;;;28.00;99.90;;;;;;4996900;28;19972;-65
2022/09/06 01:44:29;;;;;;;;;;;28.00;99.90;;;;;;4996832;28;19906;-64
2022/09/06 01:47:04;;;;;;;;;;;28.10;99.90;;;;;;4996820;28;19905;-65
2022/09/06 01:49:39;;;;;;;;;;;28.30;99.90;;;;;;4999282;28;19913;-66
2022/09/06 01:52:18;;;;;;;;;;;28.40;99.90;;;;;;4997004;28;19912;-65
2022/09/06 01:54:44;;;;;;;;;;;28.40;99.90;;;;;;4996620;28;20382;-65
2022/09/06 01:57:11;;;;;;;;;;;28.50;99.90;;;;;;4996634;28;19949;-65
2022/09/06 01:59:57;;;;;;;;;;;28.50;99.90;;;;;;4996697;28;19996;-65
2022/09/06 02:02:31;;;;;;;;;;;28.50;99.90;;;;;;4913850;29;19914;-65
2022/09/06 02:05:00;;;;;;;;;;;28.60;99.90;;;;;;4917597;29;19914;-65
2022/09/06 02:07:28;;;;;;;;;;;28.60;99.90;;;;;;4917271;29;19911;-65
2022/09/06 02:10:14;;;;;;;;;;;28.50;99.90;;;;;;4917764;29;19907;-65
2022/09/06 02:12:42;;;;;;;;;;;28.70;99.90;;;;;;4915263;28;19914;-65
2022/09/06 02:15:14;;;;;;;;;;;28.80;99.90;;;;;;4917359;29;20396;-66
2022/09/06 02:17:44;;;;;;;;;;;28.80;99.90;;;;;;4917372;29;19943;-65
2022/09/06 02:20:15;;;;;;;;;;;28.70;99.90;;;;;;4917089;29;19914;-66
2022/09/06 02:22:44;;;;;;;;;;;28.80;99.90;;;;;;4917213;29;19921;-65
2022/09/06 02:25:12;;;;;;;;;;;29.00;99.90;;;;;;4917267;29;20053;-65
2022/09/06 02:27:38;;;;;;;;;;;28.90;99.90;;;;;;4917005;29;19907;-64
2022/09/06 02:30:05;;;;;;;;;;;28.90;99.90;;;;;;4917198;29;19907;-64
2022/09/06 02:32:33;;;;;;;;;;;29.00;99.90;;;;;;4917070;29;19911;-65
2022/09/06 02:35:05;;;;;;;;;;;29.00;99.90;;;;;;4916775;29;20058;-65
2022/09/06 02:37:31;;;;;;;;;;;29.10;99.90;;;;;;4916996;29;19946;-64
2022/09/06 02:39:57;;;;;;;;;;;29.20;99.90;;;;;;4986917;28;19917;-65
2022/09/06 02:42:24;;;;;;;;;;;29.30;99.90;;;;;;5015257;28;19956;-65
2022/09/06 02:44:50;;;;;;;;;;;29.40;99.90;;;;;;5015129;28;19910;-65
2022/09/06 02:47:16;;;;;;;;;;;29.50;99.90;;;;;;5015323;28;19956;-64
2022/09/06 02:49:42;;;;;;;;;;;29.50;99.90;;;;;;5015128;28;19905;-66
2022/09/06 02:52:08;;;;;;;;;;;29.50;99.90;;;;;;5015272;28;19907;-65
2022/09/06 02:54:34;;;;;;;;;;;29.70;99.90;;;;;;5015151;28;20351;-65
2022/09/06 02:57:00;;;;;;;;;;;29.70;99.90;;;;;;5015043;28;19912;-65
2022/09/06 02:59:26;;;;;;;;;;;29.80;99.90;;;;;;5015046;28;19912;-65
2022/09/06 03:01:53;;;;;;;;;;;29.70;99.90;;;;;;5015080;28;19905;-66
2022/09/06 03:04:19;;;;;;;;;;;29.70;99.90;;;;;;5014891;28;19905;-65
2022/09/06 03:06:45;;;;;;;;;;;29.70;99.90;;;;;;5014963;28;19910;-65
2022/09/06 03:09:11;;;;;;;;;;;29.70;99.90;;;;;;5015003;28;19960;-65
2022/09/06 03:11:37;;;;;;;;;;;29.80;99.90;;;;;;5014911;28;19905;-66
2022/09/06 03:14:03;;;;;;;;;;;29.70;99.90;;;;;;5014786;28;19936;-65
2022/09/06 03:16:32;;;;;;;;;;;29.80;99.90;;;;;;5014871;28;19909;-66
2022/09/06 03:18:58;;;;;;;;;;;29.90;99.90;;;;;;5014795;28;19905;-66
2022/09/06 03:21:25;;;;;;;;;;;29.90;99.90;;;;;;5014750;28;19971;-65
2022/09/06 03:23:51;;;;;;;;;;;29.90;99.90;;;;;;5014612;28;19909;-66
2022/09/06 03:26:17;;;;;;;;;;;29.90;99.90;;;;;;5014523;28;19913;-66
2022/09/06 03:28:43;;;;;;;;;;;30.00;99.90;;;;;;5014653;28;19913;-66
2022/09/06 03:31:09;;;;;;;;;;;30.10;99.90;;;;;;5014654;28;19976;-66
2022/09/06 03:33:35;;;;;;;;;;;30.20;99.90;;;;;;5014516;28;19905;-66
2022/09/06 03:36:02;;;;;;;;;;;30.10;99.90;;;;;;5014427;28;19912;-66
2022/09/06 03:38:28;;;;;;;;;;;30.10;99.90;;;;;;5014655;28;19912;-66
2022/09/06 03:40:54;;;;;;;;;;;30.10;99.90;;;;;;5014474;28;19929;-65
2022/09/06 03:43:22;;;;;;;;;;;30.10;99.90;;;;;;5014289;28;19906;-65
2022/09/06 03:45:49;;;;;;;;;;;30.10;99.90;;;;;;5014361;28;20425;-65
2022/09/06 03:48:16;;;;;;;;;;;30.10;99.90;;;;;;5014311;28;19906;-66
2022/09/06 03:50:44;;;;;;;;;;;30.10;99.90;;;;;;5014084;28;20267;-65
2022/09/06 03:53:10;;;;;;;;;;;30.00;99.90;;;;;;5014138;28;19988;-66
2022/09/06 03:55:36;;;;;;;;;;;30.00;99.90;;;;;;5014014;28;20424;-65
2022/09/06 03:58:02;;;;;;;;;;;30.10;99.90;;;;;;5013073;28;19952;-65
2022/09/06 04:00:28;;;;;;;;;;;30.00;99.90;;;;;;5008114;28;19905;-65
2022/09/06 04:02:55;;;;;;;;;;;30.10;99.90;;;;;;4997473;28;20286;-64
2022/09/06 04:05:21;;;;;;;;;;;30.10;99.90;;;;;;4994580;28;20318;-66
2022/09/06 04:07:47;;;;;;;;;;;30.30;99.90;;;;;;5003631;28;19905;-65
2022/09/06 04:10:13;;;;;;;;;;;30.30;99.90;;;;;;5013759;28;19963;-66
2022/09/06 04:12:39;;;;;;;;;;;30.40;99.90;;;;;;5013441;28;19917;-66
2022/09/06 04:15:05;;;;;;;;;;;30.40;99.90;;;;;;5013715;28;19910;-68
2022/09/06 04:17:32;;;;;;;;;;;30.50;99.90;;;;;;5013941;28;19928;-68
2022/09/06 04:19:58;;;;;;;;;;;30.50;99.90;;;;;;5012465;28;19905;-67
2022/09/06 04:22:25;;;;;;;;;;;30.50;99.90;;;;;;4999437;28;19932;-67
2022/09/06 04:24:51;;;;;;;;;;;30.50;99.90;;;;;;5001057;28;20287;-67
2022/09/06 04:27:17;;;;;;;;;;;30.50;99.90;;;;;;4993844;28;20339;-76
2022/09/06 04:29:43;;;;;;;;;;;30.50;99.90;;;;;;5010303;28;19976;-71
2022/09/06 04:32:10;;;;;;;;;;;30.40;99.90;;;;;;5013840;28;19949;-74
2022/09/06 04:34:36;;;;;;;;;;;30.40;99.90;;;;;;5013798;28;19913;-75
2022/09/06 04:37:02;;;;;;;;;;;30.40;99.90;;;;;;5013794;28;20281;-68
2022/09/06 04:39:28;;;;;;;;;;;30.40;99.90;;;;;;5013958;28;20321;-69
2022/09/06 04:41:54;;;;;;;;;;;30.40;99.90;;;;;;5013649;28;19963;-70
2022/09/06 04:44:20;;;;;;;;;;;30.50;99.90;;;;;;5013734;28;19905;-69
2022/09/06 04:46:47;;;;;;;;;;;30.50;99.90;;;;;;5013767;28;19913;-68
2022/09/06 04:49:13;;;;;;;;;;;30.50;99.90;;;;;;5013687;28;19906;-69
2022/09/06 04:51:39;;;;;;;;;;;30.60;99.90;;;;;;4995994;28;20279;-69
2022/09/06 04:54:05;;;;;;;;;;;30.60;99.90;;;;;;5013525;28;20015;-71
2022/09/06 04:56:32;;;;;;;;;;;30.60;99.90;;;;;;5013512;28;19906;-67
2022/09/06 04:58:58;;;;;;;;;;;30.60;99.90;;;;;;5013561;28;19905;-66
2022/09/06 05:01:25;;;;;;;;;;;30.60;99.90;;;;;;5013630;28;20167;-66
2022/09/06 05:03:51;;;;;;;;;;;30.70;99.90;;;;;;5013741;28;19952;-66
2022/09/06 05:06:19;;;;;;;;;;;30.80;99.90;;;;;;5013646;28;19960;-67
2022/09/06 05:08:45;;;;;;;;;;;30.90;99.90;;;;;;5015542;28;19913;-66
2022/09/06 05:11:12;;;;;;;;;;;30.90;99.90;;;;;;5017219;28;20425;-67
2022/09/06 05:13:38;;;;;;;;;;;30.90;99.90;;;;;;5006236;28;19909;-66
2022/09/06 05:16:06;;;;;;;;;;;30.80;99.90;;;;;;5010124;28;20008;-66
2022/09/06 05:18:32;;;;;;;;;;;30.80;99.90;;;;;;5008724;28;19913;-66
2022/09/06 05:20:59;;;;;;;;;;;30.70;99.90;;;;;;5016639;28;19913;-66
2022/09/06 05:23:26;;;;;;;;;;;30.60;99.90;;;;;;5016418;28;19918;-67
2022/09/06 05:25:53;;;;;;;;;;;30.70;99.90;;;;;;5016331;28;19983;-66
2022/09/06 05:28:19;;;;;;;;;;;30.70;99.90;;;;;;5015941;28;19909;-68
2022/09/06 05:30:46;;;;;;;;;;;30.70;99.90;;;;;;5016086;28;19959;-68
2022/09/06 05:33:13;;;;;;;;;;;30.70;99.90;;;;;;5013216;28;19905;-66
2022/09/06 05:35:39;;;;;;;;;;;30.70;99.90;;;;;;5015244;28;19928;-68
2022/09/06 05:38:05;;;;;;;;;;;30.70;99.90;;;;;;5015672;28;19959;-69
2022/09/06 05:40:31;;;;;;;;;;;30.70;99.90;;;;;;5015766;28;19956;-69
2022/09/06 05:42:57;;;;;;;;;;;30.70;99.90;;;;;;5015720;28;19979;-70
2022/09/06 05:45:23;;;;;;;;;;;30.70;99.90;;;;;;5015519;28;20278;-69
2022/09/06 05:47:49;;;;;;;;;;;30.70;99.90;;;;;;5015661;28;19996;-69
2022/09/06 05:50:15;;;;;;;;;;;30.70;99.90;;;;;;5015649;28;19905;-69
2022/09/06 05:52:42;;;;;;;;;;;30.80;99.90;;;;;;5015427;28;20275;-69
2022/09/06 05:55:08;;;;;;;;;;;31.00;99.90;;;;;;5015454;28;19920;-71
2022/09/06 05:57:34;;;;;;;;;;;31.10;99.90;;;;;;5014232;28;19984;-70
2022/09/06 06:00:00;;;;;;;;;;;31.30;99.90;;;;;;5015223;28;20021;-71
2022/09/06 06:02:26;;;;;;;;;;;31.40;99.90;;;;;;5015584;28;19936;-70
2022/09/06 06:04:53;;;;;;;;;;;31.40;99.90;;;;;;5016042;28;20355;-70
2022/09/06 06:07:19;;;;;;;;;;;31.50;99.90;;;;;;5015709;28;20038;-71
2022/09/06 06:09:45;;;;;;;;;;;31.60;99.90;;;;;;5015852;28;19906;-70
2022/09/06 06:12:11;;;;;;;;;;;31.50;99.90;;;;;;5015632;28;19910;-70
2022/09/06 06:14:38;;;;;;;;;;;31.50;99.90;;;;;;5015125;28;19914;-70
2022/09/06 06:17:04;;;;;;;;;;;31.50;99.90;;;;;;5015186;28;19941;-71
2022/09/06 06:19:30;;;;;;;;;;;31.50;99.90;;;;;;5015244;28;19909;-71
2022/09/06 06:21:57;;;;;;;;;;;31.60;99.90;;;;;;5015641;28;19920;-67
2022/09/06 06:24:23;;;;;;;;;;;31.70;99.90;;;;;;5015697;28;19905;-71
2022/09/06 06:26:49;;;;;;;;;;;31.70;99.90;;;;;;5015628;28;19952;-70
2022/09/06 06:29:15;;;;;;;;;;;31.70;99.90;;;;;;5015656;28;19952;-70
2022/09/06 06:31:41;;;;;;;;;;;31.70;99.90;;;;;;5015520;28;19905;-69
2022/09/06 06:34:07;;;;;;;;;;;31.70;99.90;;;;;;5015457;28;19913;-70
2022/09/06 06:36:34;;;;;;;;;;;31.60;99.90;;;;;;5015526;28;19996;-69
2022/09/06 06:39:02;;;;;;;;;;;31.50;99.90;;;;;;5015308;28;19912;-67
2022/09/06 06:41:29;;;;;;;;;;;31.50;99.90;;;;;;5015331;28;19911;-68
2022/09/06 06:43:56;;;;;;;;;;;31.50;99.90;;;;;;5015412;28;20351;-70
2022/09/06 06:46:24;;;;;;;;;;;31.50;99.90;;;;;;5015597;28;19905;-70
2022/09/06 06:48:50;;;;;;;;;;;31.50;99.90;;;;;;5016124;28;19963;-70
2022/09/06 06:51:17;;;;;;;;;;;31.50;99.90;;;;;;5016384;28;19909;-70
2022/09/06 06:53:46;;;;;;;;;;;31.50;99.90;;;;;;5015939;28;19913;-70
2022/09/06 06:56:14;;;;;;;;;;;31.70;99.90;;;;;;5016294;28;19912;-70
2022/09/06 06:58:40;;;;;;;;;;;31.80;99.90;;;;;;5016393;28;19909;-69
2022/09/06 07:01:08;;;;;;;;;;;32.00;99.90;;;;;;5017023;28;19912;-71
2022/09/06 07:03:35;;;;;;;;;;;32.00;99.90;;;;;;5015382;28;19906;-71
2022/09/06 07:06:02;;;;;;;;;;;32.10;99.90;;;;;;5015588;28;19960;-67
2022/09/06 07:08:28;;;;;;;;;;;32.20;99.90;;;;;;5008973;28;19932;-67
2022/09/06 07:10:54;;;;;;;;;;;32.20;99.90;;;;;;5004362;28;19912;-67
2022/09/06 07:13:20;;;;;;;;;;;32.20;99.90;;;;;;4998245;28;19922;-68
2022/09/06 07:15:46;;;;;;;;;;;32.10;99.90;;;;;;5004186;28;20287;-67
2022/09/06 07:18:14;;;;;;;;;;;32.00;99.90;;;;;;4997372;28;19914;-67
2022/09/06 07:20:40;;;;;;;;;;;32.00;99.90;;;;;;5004766;28;20371;-66
2022/09/06 07:23:07;;;;;;;;;;;31.90;99.90;;;;;;4996195;28;19917;-67
2022/09/06 07:25:33;;;;;;;;;;;31.90;99.90;;;;;;5005692;28;19910;-71
2022/09/06 07:28:01;;;;;;;;;;;31.90;99.90;;;;;;4996726;28;19916;-66
2022/09/06 07:30:30;;;;;;;;;;;31.80;99.90;;;;;;5006113;28;20363;-67
2022/09/06 07:32:57;;;;;;;;;;;31.80;99.90;;;;;;5011788;28;19937;-67
2022/09/06 07:35:25;;;;;;;;;;;31.70;99.90;;;;;;5006057;28;20301;-67
2022/09/06 07:37:53;;;;;;;;;;;31.70;99.90;;;;;;4995195;28;19952;-67
2022/09/06 07:40:19;;;;;;;;;;;31.60;99.90;;;;;;5003248;28;19917;-68
2022/09/06 07:42:45;;;;;;;;;;;31.50;99.90;;;;;;5014615;28;20358;-67
2022/09/06 07:45:11;;;;;;;;;;;31.50;99.90;;;;;;5006525;28;19905;-67
2022/09/06 07:47:37;;;;;;;;;;;31.50;99.90;;;;;;4994758;28;19959;-67
2022/09/06 07:50:04;;;;;;;;;;;31.60;99.90;;;;;;5006030;28;19906;-67
2022/09/06 07:52:30;;;;;;;;;;;31.60;99.90;;;;;;4994775;28;19913;-67
2022/09/06 07:54:56;;;;;;;;;;;31.50;99.90;;;;;;5005430;28;19909;-67
2022/09/06 07:57:22;;;;;;;;;;;31.50;99.90;;;;;;5004358;28;20024;-68
2022/09/06 07:59:49;;;;;;;;;;;31.50;99.90;;;;;;5006055;28;19905;-67
2022/09/06 08:02:16;;;;;;;;;;;31.50;99.90;;;;;;5012278;28;19913;-66
2022/09/06 08:04:45;;;;;;;;;;;31.50;99.90;;;;;;5004997;28;19910;-67
2022/09/06 08:07:12;;;;;;;;;;;31.40;99.90;;;;;;5010732;28;20378;-67
2022/09/06 08:09:38;;;;;;;;;;;31.10;99.90;;;;;;5010485;28;20417;-69
2022/09/06 08:12:06;;;;;;;;;;;30.80;99.90;;;;;;5014097;28;19905;-69
2022/09/06 08:14:32;;;;;;;;;;;30.50;99.90;;;;;;5007473;28;19913;-69
2022/09/06 08:16:58;;;;;;;;;;;30.30;99.90;;;;;;4992313;28;20345;-69
2022/09/06 08:19:24;;;;;;;;;;;30.20;99.90;;;;;;5011937;28;20020;-70
2022/09/06 08:21:52;;;;;;;;;;;30.10;99.90;;;;;;5013493;28;19957;-69
2022/09/06 08:24:19;;;;;;;;;;;30.10;99.90;;;;;;5013671;28;19912;-70
2022/09/06 08:26:45;;;;;;;;;;;30.10;99.90;;;;;;5013544;28;19916;-69
2022/09/06 08:29:12;;;;;;;;;;;29.90;99.90;;;;;;5013382;28;20287;-70
2022/09/06 08:31:40;;;;;;;;;;;29.80;99.90;;;;;;4994617;28;19910;-69
2022/09/06 08:34:06;;;;;;;;;;;29.70;99.90;;;;;;5012852;28;20386;-70
2022/09/06 08:36:32;;;;;;;;;;;29.50;99.90;;;;;;5012889;28;19909;-70
2022/09/06 08:39:00;;;;;;;;;;;29.40;99.90;;;;;;5012814;28;19912;-70
2022/09/06 08:41:26;;;;;;;;;;;29.30;99.90;;;;;;5012961;28;19906;-70
2022/09/06 08:43:54;;;;;;;;;;;29.40;99.90;;;;;;5015245;28;19905;-71
2022/09/06 08:46:23;;;;;;;;;;;29.30;99.90;;;;;;5016799;28;20339;-71
2022/09/06 08:48:49;;;;;;;;;;;29.20;99.90;;;;;;4999410;28;20457;-70
2022/09/06 08:51:36;;;;;;;;;;;29.00;99.90;;;;;;5017592;28;19937;-70
2022/09/06 08:54:16;;;;;;;;;;;28.90;99.90;;;;;;5016178;28;19905;-70
2022/09/06 08:56:54;;;;;;;;;;;29.10;99.90;;;;;;5016106;28;19905;-70
2022/09/06 08:59:20;;;;;;;;;;;29.10;99.90;;;;;;5015939;28;19906;-70
2022/09/06 09:02:06;;;;;;;;;;;28.90;99.90;;;;;;5017092;28;20278;-70
2022/09/06 09:04:34;;;;;;;;;;;28.90;99.90;;;;;;5012291;28;20263;-69
2022/09/06 09:07:05;;;;;;;;;;;28.80;99.90;;;;;;5017106;28;19913;-71
2022/09/06 09:09:32;;;;;;;;;;;28.70;99.90;;;;;;5014411;28;19912;-70
2022/09/06 09:11:59;;;;;;;;;;;28.60;99.90;;;;;;5015812;28;19909;-69
2022/09/06 09:14:29;;;;;;;;;;;28.70;99.90;;;;;;5015001;28;19960;-70
2022/09/06 09:16:58;;;;;;;;;;;28.70;99.90;;;;;;5015584;28;19916;-70
2022/09/06 09:19:24;;;;;;;;;;;28.70;99.90;;;;;;5018871;28;19919;-70
2022/09/06 09:21:50;;;;;;;;;;;28.60;99.90;;;;;;5016678;28;19916;-71
2022/09/06 09:24:16;;;;;;;;;;;28.50;99.90;;;;;;5017330;28;20266;-70
2022/09/06 09:26:56;;;;;;;;;;;28.50;99.90;;;;;;5016785;28;20286;-68
2022/09/06 09:29:22;;;;;;;;;;;28.50;99.90;;;;;;5015299;28;19952;-69
2022/09/06 09:31:51;;;;;;;;;;;28.60;99.90;;;;;;5015181;28;19971;-69
2022/09/06 09:34:27;;;;;;;;;;;28.60;99.90;;;;;;5014624;28;19924;-69
2022/09/06 09:37:13;;;;;;;;;;;28.50;99.90;;;;;;5016612;28;19905;-70
2022/09/06 09:39:39;;;;;;;;;;;28.60;99.90;;;;;;5013687;28;19952;-71
2022/09/06 09:42:07;;;;;;;;;;;28.40;99.90;;;;;;5014757;28;19917;-70
2022/09/06 09:44:34;;;;;;;;;;;28.30;99.90;;;;;;5013515;28;19905;-73
2022/09/06 09:47:09;;;;;;;;;;;28.30;99.90;;;;;;5015994;28;19913;-74
2022/09/06 09:49:35;;;;;;;;;;;28.30;99.90;;;;;;5011836;28;19951;-72
2022/09/06 09:52:02;;;;;;;;;;;28.30;99.90;;;;;;5015063;28;19952;-71
2022/09/06 09:54:30;;;;;;;;;;;28.40;99.90;;;;;;5014458;28;20274;-73
2022/09/06 09:56:56;;;;;;;;;;;28.40;99.90;;;;;;5011723;28;19968;-74
2022/09/06 09:59:25;;;;;;;;;;;28.20;99.90;;;;;;5013984;28;20478;-68
2022/09/06 10:01:55;;;;;;;;;;;28.10;99.90;;;;;;5014172;28;19905;-67
2022/09/06 10:04:28;;;;;;;;;;;28.10;99.90;;;;;;5013822;28;20390;-67
2022/09/06 10:07:05;;;;;;;;;;;28.20;99.90;;;;;;5011438;28;20425;-67
2022/09/06 10:09:34;;;;;;;;;;;28.20;99.90;;;;;;5013707;28;20004;-67
2022/09/06 10:12:01;;;;;;;;;;;28.10;99.90;;;;;;5015079;28;19952;-70
2022/09/06 10:14:32;;;;;;;;;;;28.00;99.90;;;;;;5015752;28;19909;-71
2022/09/06 10:16:59;;;;;;;;;;;28.10;99.90;;;;;;5013445;28;19905;-71
2022/09/06 10:19:26;;;;;;;;;;;28.00;99.90;;;;;;5015503;28;20000;-70
2022/09/06 10:21:55;;;;;;;;;;;27.90;99.90;;;;;;5013949;28;20052;-70
2022/09/06 10:24:29;;;;;;;;;;;27.90;99.90;;;;;;5013808;28;19956;-68
2022/09/06 10:26:58;;;;;;;;;;;27.80;99.90;;;;;;5014127;28;20335;-66
2022/09/06 10:29:24;;;;;;;;;;;27.80;99.90;;;;;;5014021;28;19912;-67
2022/09/06 10:31:58;;;;;;;;;;;27.90;99.90;;;;;;5013839;28;19916;-67
2022/09/06 10:34:43;;;;;;;;;;;28.00;99.90;;;;;;5013782;28;19953;-68
2022/09/06 10:37:19;;;;;;;;;;;28.00;99.90;;;;;;5013999;28;19928;-69
2022/09/06 10:39:45;;;;;;;;;;;28.10;99.90;;;;;;5015556;28;19955;-68
2022/09/06 10:42:12;;;;;;;;;;;28.10;99.90;;;;;;5015253;28;19962;-68
2022/09/06 10:44:39;;;;;;;;;;;28.10;99.90;;;;;;5015345;28;19905;-68
2022/09/06 10:47:10;;;;;;;;;;;27.90;99.90;;;;;;5013480;28;19912;-68
2022/09/06 10:49:37;;;;;;;;;;;27.80;99.90;;;;;;5013331;28;19905;-68
2022/09/06 10:52:05;;;;;;;;;;;27.70;99.90;;;;;;5013636;28;19909;-68
2022/09/06 10:54:32;;;;;;;;;;;27.60;99.90;;;;;;5013617;28;19999;-68
2022/09/06 10:57:00;;;;;;;;;;;27.60;99.90;;;;;;5013590;28;19987;-68
2022/09/06 10:59:30;;;;;;;;;;;27.50;99.90;;;;;;5013607;28;19941;-67
2022/09/06 11:01:57;;;;;;;;;;;27.50;99.90;;;;;;5014761;28;19912;-68
2022/09/06 11:04:29;;;;;;;;;;;27.40;99.90;;;;;;5014803;28;20362;-67
2022/09/06 11:06:58;;;;;;;;;;;27.20;99.90;;;;;;5014914;28;19912;-67
2022/09/06 11:09:26;;;;;;;;;;;27.20;99.90;;;;;;5014936;28;19931;-68
2022/09/06 11:11:52;;;;;;;;;;;27.40;99.90;;;;;;5014882;28;20289;-69
2022/09/06 11:14:20;;;;;;;;;;;27.40;99.90;;;;;;5014853;28;19910;-68
2022/09/06 11:16:58;;;;;;;;;;;27.40;99.90;;;;;;5014853;28;19905;-68
2022/09/06 11:19:28;;;;;;;;;;;27.50;99.90;;;;;;5014897;28;19960;-68
2022/09/06 11:22:06;;;;;;;;;;;27.50;99.90;;;;;;5014512;28;19913;-68
2022/09/06 11:24:32;;;;;;;;;;;27.40;99.90;;;;;;5014713;28;19913;-68
2022/09/06 11:26:58;;;;;;;;;;;27.40;99.90;;;;;;5014666;28;19912;-68
2022/09/06 11:29:25;;;;;;;;;;;27.50;99.90;;;;;;5014557;28;20359;-67
2022/09/06 11:31:53;;;;;;;;;;;27.60;99.90;;;;;;5014587;28;19915;-68
2022/09/06 11:34:21;;;;;;;;;;;27.60;99.90;;;;;;5014492;28;19913;-68
2022/09/06 11:36:57;;;;;;;;;;;27.70;99.90;;;;;;5014330;28;19910;-67
2022/09/06 11:39:25;;;;;;;;;;;27.80;99.90;;;;;;5012399;28;19906;-66
2022/09/06 11:41:51;;;;;;;;;;;28.00;99.90;;;;;;5014357;28;19992;-67
2022/09/06 11:44:37;;;;;;;;;;;28.00;99.90;;;;;;5002411;28;19905;-67
2022/09/06 11:47:06;;;;;;;;;;;28.00;99.90;;;;;;4896921;29;19929;-67
2022/09/06 11:49:33;;;;;;;;;;;28.00;99.90;;;;;;4896336;29;20385;-71
2022/09/06 11:52:00;;;;;;;;;;;28.00;99.90;;;;;;4897132;29;19942;-71
2022/09/06 11:54:32;;;;;;;;;;;27.90;99.90;;;;;;4913725;29;19910;-70
2022/09/06 11:57:00;;;;;;;;;;;27.70;99.90;;;;;;4920832;29;20007;-71
2022/09/06 11:59:32;;;;;;;;;;;27.70;99.90;;;;;;4923535;29;19913;-70
2022/09/06 12:02:02;;;;;;;;;;;27.60;99.90;;;;;;4920718;29;19929;-70
2022/09/06 12:04:48;;;;;;;;;;;27.60;99.90;;;;;;4918629;29;19987;-70
2022/09/06 12:07:14;;;;;;;;;;;27.60;99.90;;;;;;4925038;29;19967;-69
2022/09/06 12:09:42;;;;;;;;;;;27.70;99.90;;;;;;4924111;29;19930;-70
2022/09/06 12:12:09;;;;;;;;;;;27.90;99.90;;;;;;4924084;29;20001;-72
2022/09/06 12:14:45;;;;;;;;;;;27.90;99.90;;;;;;4920977;29;20002;-69
2022/09/06 12:17:11;;;;;;;;;;;28.00;99.90;;;;;;4923829;29;19915;-68
2022/09/06 12:19:50;;;;;;;;;;;28.10;99.90;;;;;;4924736;29;19914;-69
2022/09/06 12:22:29;;;;;;;;;;;28.10;99.90;;;;;;4924593;29;19915;-69
2022/09/06 12:24:58;;;;;;;;;;;28.10;99.90;;;;;;4990853;28;19906;-69
2022/09/06 12:27:28;;;;;;;;;;;28.10;99.90;;;;;;5003443;28;20052;-69
2022/09/06 12:30:14;;;;;;;;;;;28.00;99.90;;;;;;5004170;28;20366;-69
2022/09/06 12:32:42;;;;;;;;;;;27.90;99.90;;;;;;4985783;28;20385;-68
2022/09/06 12:35:12;;;;;;;;;;;27.80;99.90;;;;;;5002484;28;19913;-69
2022/09/06 12:37:58;;;;;;;;;;;27.90;99.90;;;;;;5013437;28;20478;-69
2022/09/06 12:40:25;;;;;;;;;;;27.90;99.90;;;;;;5012535;28;19909;-71
2022/09/06 12:42:52;;;;;;;;;;;27.80;99.90;;;;;;5012653;28;19964;-71
2022/09/06 12:45:22;;;;;;;;;;;27.60;99.90;;;;;;5009031;28;19910;-71
2022/09/06 12:47:49;;;;;;;;;;;27.40;99.90;;;;;;5011778;28;20413;-70
2022/09/06 12:50:16;;;;;;;;;;;27.30;99.90;;;;;;5011950;28;19996;-70
2022/09/06 12:52:46;;;;;;;;;;;27.30;99.90;;;;;;5011956;28;19939;-68
2022/09/06 12:55:18;;;;;;;;;;;27.20;99.90;;;;;;5011921;28;19916;-69
2022/09/06 12:57:46;;;;;;;;;;;27.20;99.90;;;;;;5011326;28;19909;-68
2022/09/06 13:00:13;;;;;;;;;;;27.20;99.90;;;;;;5011978;28;19960;-69
2022/09/06 13:02:46;;;;;;;;;;;27.30;99.90;;;;;;5013226;28;19905;-69
2022/09/06 13:05:12;;;;;;;;;;;27.40;99.90;;;;;;5013304;28;20366;-70
2022/09/06 13:07:40;;;;;;;;;;;27.40;99.90;;;;;;5008950;28;19914;-70
2022/09/06 13:10:06;;;;;;;;;;;27.50;99.90;;;;;;5009272;28;19905;-70
2022/09/06 13:12:34;;;;;;;;;;;27.50;99.90;;;;;;5013137;28;19905;-70
2022/09/06 13:15:04;;;;;;;;;;;27.60;99.90;;;;;;5005233;28;19917;-70
2022/09/06 13:17:30;;;;;;;;;;;27.50;99.90;;;;;;4993920;28;19951;-66
2022/09/06 13:19:58;;;;;;;;;;;27.50;99.90;;;;;;4993768;28;19912;-65
2022/09/06 13:22:44;;;;;;;;;;;27.50;99.90;;;;;;4993649;28;20359;-65
2022/09/06 13:25:17;;;;;;;;;;;27.50;99.90;;;;;;4993769;28;19910;-65
2022/09/06 13:27:44;;;;;;;;;;;27.40;99.90;;;;;;4993758;28;20048;-65
2022/09/06 13:30:28;;;;;;;;;;;27.50;99.90;;;;;;4994835;28;20378;-67
2022/09/06 13:32:54;;;;;;;;;;;27.50;99.90;;;;;;4997259;28;19944;-68
2022/09/06 13:35:22;;;;;;;;;;;27.50;99.90;;;;;;4997202;28;19988;-64
2022/09/06 13:37:48;;;;;;;;;;;27.50;99.90;;;;;;4997073;28;19913;-65
2022/09/06 13:40:34;;;;;;;;;;;27.50;99.90;;;;;;4997351;28;19914;-64
2022/09/06 13:43:00;;;;;;;;;;;27.40;99.90;;;;;;5008374;28;19913;-65
2022/09/06 13:45:27;;;;;;;;;;;27.30;99.90;;;;;;4996938;28;20367;-65
2022/09/06 13:47:54;;;;;;;;;;;27.40;99.90;;;;;;5000184;28;19909;-65
2022/09/06 13:50:20;;;;;;;;;;;27.50;99.90;;;;;;5016505;28;19905;-65
2022/09/06 13:52:46;;;;;;;;;;;27.50;99.90;;;;;;5016445;28;20325;-65
2022/09/06 13:55:14;;;;;;;;;;;27.40;99.90;;;;;;5016461;28;19909;-66
2022/09/06 13:57:40;;;;;;;;;;;27.50;99.90;;;;;;5015875;28;20313;-64
2022/09/06 14:00:07;;;;;;;;;;;27.50;99.90;;;;;;5016148;28;19909;-70
2022/09/06 14:02:33;;;;;;;;;;;27.40;99.90;;;;;;5016289;28;19905;-70
2022/09/06 14:04:59;;;;;;;;;;;27.30;99.90;;;;;;5016158;28;19906;-69
2022/09/06 14:07:25;;;;;;;;;;;27.30;99.90;;;;;;5015978;28;20343;-70
2022/09/06 14:09:51;;;;;;;;;;;27.20;99.90;;;;;;5016290;28;19910;-69
2022/09/06 14:12:18;;;;;;;;;;;27.20;99.90;;;;;;5009399;28;20008;-69
2022/09/06 14:14:44;;;;;;;;;;;27.20;99.90;;;;;;5004510;28;20046;-68
2022/09/06 14:17:10;;;;;;;;;;;27.30;99.90;;;;;;4996436;28;19909;-69
2022/09/06 14:19:36;;;;;;;;;;;27.40;99.90;;;;;;4996292;28;19945;-69
2022/09/06 14:22:05;;;;;;;;;;;27.40;99.90;;;;;;4996071;28;20382;-68